Data for 12/02/2008

Time Sea-Level Adjusted Pressure Absolute Pressure Temperature Relative Humidity Dew Point   
(mb) (inHg) (mb) (inHg) (C) (F) (%) (C) (F)
00:05 1011 29.85 840 24.81 8.6 47.5 37 -5.3 22.4
00:10 1011 29.85 840 24.81 8.4 47 37 -5.5 22
00:15 1011 29.85 840 24.81 8.3 47 37 -5.6 21.8
00:20 1011 29.85 840 24.81 8.5 47.2 35 -6 21.2
00:25 1011 29.85 840 24.81 8.9 48 34 -6.3 20.6
00:30 1011 29.85 840 24.81 8.9 48 36 -5.5 22.2
00:35 1011 29.85 840 24.81 8.4 47.1 36 -5.7 21.7
00:40 1010 29.83 840 24.81 8.8 47.8 33 -6.7 19.9
00:45 1010 29.83 840 24.81 9.3 48.7 32 -6.4 20.6
00:50 1010 29.83 839 24.78 9.3 48.8 32 -6.5 20.2
00:55 1010 29.83 839 24.78 9.5 49 31 -6.9 19.7
01:00 1010 29.83 839 24.78 9.7 49.4 32 -6.4 20.5
01:05 1010 29.83 839 24.78 9.7 49.4 31 -6.5 20.4
01:10 1010 29.83 839 24.78 9.7 49.4 31 -6.5 20.4
01:15 1010 29.83 839 24.78 9.6 49.4 32 -6.3 20.7
01:20 1010 29.83 839 24.78 9.6 49.3 32 -6.4 20.6
01:25 1010 29.83 839 24.78 9.7 49.5 32 -6.1 20.9
01:30 1010 29.83 839 24.78 9.4 49 32 -6.6 20.1
01:35 1010 29.83 839 24.78 9.4 48.9 32 -6.3 20.7
01:40 1010 29.83 839 24.78 9.2 48.6 33 -6.2 20.9
01:45 1010 29.83 839 24.78 9 48.2 35 -5.6 21.9
01:50 1010 29.83 839 24.78 8.6 47.5 36 -5.7 21.8
01:55 1010 29.83 839 24.78 8.7 47.6 34 -6.4 20.4
02:00 1010 29.83 839 24.78 9.1 48.4 34 -6.1 21.1
02:05 1010 29.83 839 24.78 9 48.2 35 -5.6 21.8
02:10 1010 29.83 839 24.78 9 48.2 33 -6.3 20.7
02:15 1010 29.83 839 24.78 9.1 48.4 35 -5.5 22.1
02:20 1010 29.83 839 24.78 8.7 47.7 35 -5.7 21.7
02:25 1010 29.83 839 24.78 8.7 47.7 37 -5.3 22.5
02:30 1010 29.83 839 24.78 8.5 47.3 37 -5.3 22.4
02:35 1010 29.83 839 24.78 8.5 47.2 37 -5.5 22
02:40 1010 29.83 839 24.78 8.5 47.3 36 -5.7 21.8
02:45 1010 29.83 839 24.78 8.6 47.4 37 -5.2 22.7
02:50 1010 29.83 839 24.78 8.2 46.7 39 -4.9 23.2
02:55 1010 29.83 839 24.78 7.9 46.3 39 -5.1 22.9
03:00 1009 29.8 839 24.78 8.2 46.8 37 -5.6 21.9
03:05 1009 29.8 839 24.78 8.6 47.5 36 -5.6 21.8
03:10 1009 29.8 839 24.78 8.8 47.8 36 -5.6 22
03:15 1009 29.8 838 24.75 8.7 47.7 37 -5.2 22.6
03:20 1009 29.8 838 24.75 8.4 47 39 -4.7 23.6
03:25 1009 29.8 838 24.75 8.1 46.6 38 -5.5 22.1
03:30 1009 29.8 838 24.75 8.4 47.1 37 -5.4 22.3
03:35 1009 29.8 838 24.75 8.6 47.5 37 -5.4 22.3
03:40 1009 29.8 838 24.75 8.5 47.3 38 -5.1 22.9
03:45 1009 29.8 838 24.75 8.3 46.9 39 -4.9 23.1
03:50 1008 29.77 838 24.75 8.1 46.6 38 -5.2 22.6
03:55 1008 29.77 837 24.72 8.4 47.1 38 -5.2 22.6
04:00 1008 29.77 837 24.72 8.6 47.4 37 -5.2 22.7
04:05 1008 29.77 837 24.72 8.5 47.3 39 -4.8 23.4
04:10 1008 29.77 837 24.72 8.3 47 38 -5.2 22.6
04:15 1008 29.77 837 24.72 8.5 47.3 37 -5.2 22.6
04:20 1008 29.77 837 24.72 8.4 47.1 40 -4.6 23.8
04:25 1008 29.77 837 24.72 8 46.3 41 -4.5 23.9
04:30 1008 29.77 837 24.72 7.8 46.1 40 -4.9 23.1
04:35 1008 29.77 837 24.72 8.1 46.5 40 -4.8 23.3
04:40 1008 29.77 837 24.72 8.2 46.7 40 -4.7 23.6
04:45 1008 29.77 837 24.72 8.3 46.9 40 -4.7 23.6
04:50 1008 29.77 837 24.72 8.2 46.8 40 -4.5 23.8
04:55 1008 29.77 837 24.72 8.2 46.8 39 -4.8 23.3
05:00 1008 29.77 837 24.72 8.6 47.5 38 -4.9 23.1
05:05 1008 29.77 837 24.72 8.5 47.3 39 -4.5 23.9
05:10 1008 29.77 837 24.72 8.5 47.3 40 -4.4 24
05:15 1008 29.77 837 24.72 8.7 47.7 39 -4.6 23.8
05:20 1008 29.77 837 24.72 9 48.1 38 -4.5 23.9
05:25 1008 29.77 837 24.72 9.1 48.4 38 -4.6 23.8
05:30 1008 29.77 837 24.72 9.2 48.6 38 -4.4 24
05:35 1008 29.77 837 24.72 9.3 48.7 38 -4.3 24.2
05:40 1008 29.77 837 24.72 9.3 48.7 38 -4.3 24.3
05:45 1007 29.74 837 24.72 9.3 48.8 37 -4.4 24
05:50 1007 29.74 837 24.72 9.4 49 38 -4.3 24.2
05:55 1007 29.74 836 24.69 9.3 48.8 39 -4.1 24.7
06:00 1007 29.74 836 24.69 9.2 48.6 39 -4 24.7
06:05 1007 29.74 836 24.69 9.1 48.4 39 -4 24.7
06:10 1007 29.74 836 24.69 9 48.1 40 -4 24.8
06:15 1007 29.74 836 24.69 8.9 48 39 -4.2 24.4
06:20 1007 29.74 836 24.69 9.1 48.3 39 -4.3 24.3
06:25 1007 29.74 836 24.69 9.1 48.4 39 -4.2 24.5
06:30 1007 29.74 836 24.69 9.2 48.5 38 -4.3 24.2
06:35 1007 29.74 836 24.69 9.2 48.6 38 -4.2 24.4
06:40 1007 29.74 836 24.69 9.2 48.6 38 -4.3 24.2
06:45 1007 29.74 836 24.69 9.2 48.6 38 -4.2 24.4
06:50 1007 29.74 836 24.69 9.1 48.4 39 -4.2 24.4
06:55 1007 29.74 836 24.69 9.2 48.5 37 -4.8 23.4
07:00 1007 29.74 836 24.69 9.6 49.2 36 -4.9 23.3
07:05 1007 29.74 836 24.69 9.8 49.6 36 -4.7 23.6
07:10 1007 29.74 836 24.69 9.7 49.5 36 -4.5 23.8
07:15 1007 29.74 836 24.69 9.7 49.5 36 -4.5 23.8
07:20 1007 29.74 836 24.69 9.8 49.6 36 -4.7 23.6
07:25 1007 29.74 836 24.69 9.8 49.6 36 -4.6 23.8
07:30 1007 29.74 836 24.69 9.7 49.4 37 -4.3 24.3
07:35 1007 29.74 837 24.72 9.5 49 39 -3.9 25
07:40 1008 29.77 837 24.72 9.3 48.7 45 -2 28.4
07:45 1008 29.77 837 24.72 9 48.2 45 -2.2 28
07:50 1008 29.77 837 24.72 8.9 48 45 -2.3 27.8
07:55 1008 29.77 837 24.72 8.9 48 49 -1.3 29.6
08:00 1008 29.77 837 24.72 8.6 47.5 49 -1.4 29.4
08:05 1008 29.77 837 24.72 8.5 47.4 53 -0.5 31.1
08:10 1008 29.77 837 24.72 8.1 46.7 55 -0.3 31.4
08:15 1008 29.77 837 24.72 7.9 46.2 56 -0.4 31.3
08:20 1008 29.77 837 24.72 7.8 46.1 53 -1.1 30.1
08:25 1008 29.77 837 24.72 7.5 45.6 52 -1.6 29.1
08:30 1008 29.77 837 24.72 7.1 44.7 55 -1.3 29.7
08:35 1008 29.77 837 24.72 6.7 44.1 59 -0.6 30.9
08:40 1008 29.77 837 24.72 6.6 43.9 60 -0.6 31
08:45 1008 29.77 838 24.75 6.5 43.7 62 -0.3 31.5
08:50 1009 29.8 838 24.75 6.4 43.6 64 0 32.1
08:55 1009 29.8 838 24.75 6.5 43.7 64 0.1 32.3
09:00 1009 29.8 838 24.75 6.5 43.6 65 0.3 32.6
09:05 1009 29.8 838 24.75 6.3 43.4 65 0.2 32.4
09:10 1009 29.8 838 24.75 6.3 43.4 65 0.3 32.6
09:15 1009 29.8 838 24.75 6.3 43.4 65 0.2 32.3
09:20 1009 29.8 838 24.75 6.4 43.5 65 0.3 32.5
09:25 1009 29.8 838 24.75 6.3 43.3 65 0.3 32.5
09:30 1009 29.8 838 24.75 6.1 43.1 67 0.6 33
09:35 1009 29.8 839 24.78 6 42.7 70 0.9 33.6
09:40 1009 29.8 839 24.78 5.9 42.6 70 0.9 33.6
09:45 1009 29.8 839 24.78 5.5 41.9 74 1.3 34.4
09:50 1009 29.8 839 24.78 5.2 41.3 75 1.1 34
09:55 1009 29.8 839 24.78 4.9 40.8 78 1.4 34.5
10:00 1010 29.83 839 24.78 4.6 40.3 80 1.5 34.7
10:05 1009 29.8 839 24.78 4.5 40 81 1.5 34.8
10:10 1010 29.83 839 24.78 4.3 39.7 82 1.6 34.8
10:15 1010 29.83 839 24.78 4.1 39.4 84 1.7 35
10:20 1010 29.83 839 24.78 4 39.2 84 1.5 34.8
10:25 1010 29.83 839 24.78 4.1 39.3 83 1.4 34.5
10:30 1010 29.83 839 24.78 4.1 39.4 83 1.4 34.6
10:35 1010 29.83 839 24.78 4.3 39.7 77 0.7 33.2
10:40 1010 29.83 839 24.78 4.8 40.7 75 0.8 33.4
10:45 1010 29.83 839 24.78 5.2 41.3 74 1 33.8
10:50 1010 29.83 839 24.78 5.2 41.3 75 1.1 33.9
10:55 1010 29.83 839 24.78 5.1 41.1 77 1.3 34.4
11:00 1010 29.83 839 24.78 5.1 41.2 75 1.1 33.9
11:05 1010 29.83 839 24.78 5.1 41.1 78 1.6 34.8
11:10 1010 29.83 839 24.78 5.1 41.2 76 1.2 34.2
11:15 1010 29.83 839 24.78 5.3 41.6 75 1.2 34.1
11:20 1010 29.83 839 24.78 5.3 41.5 76 1.4 34.6
11:25 1010 29.83 839 24.78 5.4 41.7 76 1.5 34.8
11:30 1010 29.83 839 24.78 5.5 41.9 77 1.8 35.2
11:35 1010 29.83 839 24.78 5.2 41.4 80 2 35.7
11:40 1010 29.83 839 24.78 4.4 39.9 83 1.8 35.3
11:45 1010 29.83 840 24.81 3.4 38.2 86 1.3 34.3
11:50 1010 29.83 840 24.81 3 37.3 86 0.8 33.4
11:55 1011 29.85 840 24.81 2.5 36.5 86 0.5 32.8
12:00 1011 29.85 840 24.81 2.2 35.9 87 0.3 32.5
12:05 1011 29.85 840 24.81 1.9 35.5 86 -0.1 31.8
12:10 1011 29.85 840 24.81 1.9 35.4 87 -0.1 31.8
12:15 1011 29.85 840 24.81 1.8 35.3 87 -0.2 31.7
12:20 1011 29.85 840 24.81 1.7 35.1 85 -0.5 31.1
12:25 1011 29.85 840 24.81 1.8 35.2 86 -0.3 31.5
12:30 1011 29.85 840 24.81 1.7 35.1 86 -0.5 31.2
12:35 1011 29.85 840 24.81 1.7 35 86 -0.4 31.3
12:40 1011 29.85 840 24.81 1.8 35.2 85 -0.4 31.3
12:45 1011 29.85 840 24.81 1.8 35.2 84 -0.7 30.8
12:50 1011 29.85 840 24.81 1.6 34.9 85 -0.7 30.7
12:55 1011 29.85 840 24.81 1.5 34.8 85 -0.8 30.6
13:00 1011 29.85 840 24.81 1.4 34.5 84 -1.1 30
13:05 1011 29.85 841 24.83 1.3 34.4 85 -0.9 30.3
13:10 1011 29.85 840 24.81 1.4 34.5 82 -1.4 29.5
13:15 1011 29.85 840 24.81 1.3 34.4 83 -1.2 29.8
13:20 1011 29.85 841 24.83 1.2 34.2 83 -1.4 29.5
13:25 1011 29.85 841 24.83 0.8 33.4 84 -1.6 29.1
13:30 1011 29.85 841 24.83 0.7 33.3 83 -1.7 28.9
13:35 1011 29.85 841 24.83 0.6 33 83 -2 28.5
13:40 1011 29.85 841 24.83 0.5 32.8 82 -2.2 28
13:45 1012 29.88 841 24.83 0.5 32.8 84 -1.9 28.5
13:50 1012 29.88 841 24.83 0.4 32.8 81 -2.4 27.7
13:55 1012 29.88 841 24.83 0.1 32.1 80 -3 26.6
14:00 1012 29.88 841 24.83 -0.3 31.5 81 -3.1 26.4
14:05 1012 29.88 841 24.83 -0.3 31.5 83 -2.8 26.9
14:10 1012 29.88 841 24.83 -0.3 31.5 82 -3 26.6
14:15 1012 29.88 841 24.83 -0.2 31.6 82 -2.9 26.8
14:20 1012 29.88 841 24.83 -0.2 31.6 82 -2.9 26.8
14:25 1012 29.88 841 24.83 -0.3 31.5 83 -2.8 26.9
14:30 1012 29.88 841 24.83 -0.4 31.2 83 -3 26.7
14:35 1012 29.88 841 24.83 -0.3 31.4 84 -2.7 27.1
14:40 1012 29.88 841 24.83 -0.3 31.5 85 -2.5 27.6
14:45 1012 29.88 842 24.86 -0.6 30.9 88 -2.3 27.8
14:50 1012 29.88 842 24.86 -1.1 30.1 92 -2.2 28
14:55 1012 29.88 842 24.86 -1.3 29.7 91 -2.6 27.4
15:00 1012 29.88 842 24.86 -1.4 29.4 92 -2.6 27.3
15:05 1012 29.88 842 24.86 -1.6 29.2 92 -2.7 27.1
15:10 1013 29.91 842 24.86 -1.8 28.9 91 -3 26.6
15:15 1013 29.91 842 24.86 -2 28.3 93 -3.1 26.5
15:20 1013 29.91 842 24.86 -2.1 28.3 93 -3.1 26.5
15:25 1013 29.91 842 24.86 -2.2 28 94 -3 26.5
15:30 1013 29.91 842 24.86 -2.2 28 94 -3 26.6
15:35 1013 29.91 842 24.86 -2.3 27.8 94 -3.2 26.3
15:40 1013 29.91 842 24.86 -2.5 27.5 95 -3.2 26.3
15:45 1013 29.91 843 24.89 -2.4 27.6 95 -3.1 26.4
15:50 1014 29.94 843 24.89 -2.5 27.5 95 -3.2 26.2
15:55 1014 29.94 843 24.89 -2.7 27.1 94 -3.6 25.5
16:00 1014 29.94 843 24.89 -2.9 26.7 95 -3.6 25.4
16:05 1014 29.94 843 24.89 -3 26.7 95 -3.7 25.3
16:10 1014 29.94 843 24.89 -3 26.6 96 -3.6 25.5
16:15 1014 29.94 843 24.89 -2.9 26.8 95 -3.6 25.4
16:20 1014 29.94 844 24.92 -3 26.7 94 -3.8 25.1
16:25 1015 29.97 844 24.92 -3.1 26.4 94 -4 24.9
16:30 1015 29.97 844 24.92 -3.2 26.2 94 -4.1 24.7
16:35 1015 29.97 844 24.92 -3.4 26 94 -4.2 24.5
16:40 1015 29.97 845 24.95 -3.4 25.9 94 -4.2 24.5
16:45 1015 29.97 845 24.95 -3.4 25.9 95 -4.1 24.6
16:50 1016 30 845 24.95 -3.3 26 94 -4.2 24.5
16:55 1016 30 845 24.95 -3.3 26 94 -4.1 24.6
17:00 1016 30 845 24.95 -3.2 26.3 93 -4.2 24.4
17:05 1016 30 845 24.95 -3.3 26.1 93 -4.3 24.3
17:10 1017 30.03 846 24.98 -3.2 26.2 92 -4.3 24.3
17:15 1017 30.03 846 24.98 -3.4 25.8 94 -4.3 24.2
17:20 1017 30.03 846 24.98 -3.6 25.6 94 -4.5 24
17:25 1017 30.03 846 24.98 -3.6 25.6 93 -4.5 23.9
17:30 1017 30.03 846 24.98 -3.8 25.1 93 -4.8 23.4
17:35 1017 30.03 847 25.01 -4 24.7 94 -4.9 23.2
17:40 1018 30.06 847 25.01 -4.1 24.6 94 -4.9 23.2
17:45 1018 30.06 847 25.01 -4.1 24.6 95 -4.9 23.2
17:50 1018 30.06 847 25.01 -4.2 24.5 95 -4.9 23.3
17:55 1018 30.06 847 25.01 -4.1 24.7 94 -4.9 23.2
18:00 1018 30.06 848 25.04 -4.1 24.6 93 -5.1 22.9
18:05 1018 30.06 848 25.04 -4.3 24.2 95 -5 23
18:10 1019 30.09 848 25.04 -4.3 24.2 95 -5.1 22.9
18:15 1019 30.09 848 25.04 -4.4 24.1 93 -5.4 22.3
18:20 1019 30.09 848 25.04 -4.7 23.6 94 -5.5 22.2
18:25 1019 30.09 848 25.04 -4.8 23.4 93 -5.8 21.6
18:30 1019 30.09 848 25.04 -5.1 22.9 93 -6 21.1
18:35 1019 30.09 848 25.04 -5.1 22.8 94 -5.9 21.3
18:40 1019 30.09 849 25.07 -5.2 22.6 93 -6.1 20.9
18:45 1019 30.09 849 25.07 -5.3 22.4 93 -6.3 20.6
18:50 1020 30.12 849 25.07 -5.4 22.4 93 -6.3 20.7
18:55 1020 30.12 849 25.07 -5.5 22.1 93 -6.4 20.5
19:00 1020 30.12 849 25.07 -5.6 21.9 93 -6.6 20.2
19:05 1020 30.12 849 25.07 -5.8 21.5 93 -6.7 19.9
19:10 1020 30.12 849 25.07 -5.9 21.4 94 -6.8 19.8
19:15 1020 30.12 849 25.07 -5.9 21.4 93 -6.8 19.7
19:20 1020 30.12 849 25.07 -6 21.2 93 -6.9 19.6
19:25 1020 30.12 849 25.07 -6.1 21.1 92 -7.1 19.2
19:30 1020 30.12 849 25.07 -6.1 20.9 93 -7.1 19.2
19:35 1020 30.12 849 25.07 -6.1 21 93 -7.1 19.3
19:40 1020 30.12 849 25.07 -6.1 21.1 92 -7.2 19.1
19:45 1020 30.12 849 25.07 -6.2 20.8 92 -7.2 19
19:50 1020 30.12 850 25.1 -6.3 20.7 92 -7.4 18.7
19:55 1020 30.12 850 25.1 -6.3 20.7 92 -7.3 18.8
20:00 1021 30.15 850 25.1 -6.3 20.7 90 -7.7 18.2
20:05 1021 30.15 850 25.1 -6.3 20.6 90 -7.7 18.2
20:10 1021 30.15 850 25.1 -6.4 20.5 90 -7.8 18
20:15 1021 30.15 850 25.1 -6.5 20.3 89 -8 17.6
20:20 1021 30.15 850 25.1 -6.5 20.3 88 -8.2 17.3
20:25 1021 30.15 850 25.1 -6.4 20.4 88 -8.1 17.4
20:30 1021 30.15 850 25.1 -6.2 20.8 86 -8.3 17.1
20:35 1021 30.15 850 25.1 -6.3 20.7 86 -8.2 17.2
20:40 1021 30.15 850 25.1 -6.4 20.5 86 -8.4 16.9
20:45 1021 30.15 850 25.1 -6.5 20.4 87 -8.3 17.1
20:50 1021 30.15 850 25.1 -6.4 20.5 86 -8.4 16.9
20:55 1021 30.15 850 25.1 -6.4 20.4 86 -8.4 17
21:00 1021 30.15 850 25.1 -6.5 20.3 86 -8.5 16.7
21:05 1021 30.15 851 25.13 -6.5 20.3 86 -8.6 16.6
21:10 1021 30.15 850 25.1 -6.5 20.3 85 -8.7 16.4
21:15 1021 30.15 850 25.1 -6.6 20.1 84 -8.8 16.1
21:20 1021 30.15 850 25.1 -6.6 20.1 83 -9 15.7
21:25 1021 30.15 851 25.13 -6.7 20 83 -9.1 15.7
21:30 1021 30.15 851 25.13 -6.7 19.9 82 -9.3 15.3
21:35 1021 30.15 851 25.13 -6.8 19.8 82 -9.3 15.2
21:40 1022 30.18 851 25.13 -6.8 19.7 83 -9.3 15.3
21:45 1022 30.18 851 25.13 -6.8 19.8 82 -9.3 15.3
21:50 1022 30.18 851 25.13 -6.8 19.8 82 -9.3 15.3
21:55 1022 30.18 851 25.13 -6.8 19.7 82 -9.5 14.9
22:00 1022 30.18 851 25.13 -6.9 19.6 82 -9.5 14.9
22:05 1022 30.18 851 25.13 -7 19.4 82 -9.6 14.8
22:10 1022 30.18 851 25.13 -7 19.5 82 -9.6 14.8
22:15 1022 30.18 851 25.13 -7 19.4 82 -9.6 14.7
22:20 1022 30.18 851 25.13 -7.1 19.2 83 -9.6 14.8
22:25 1022 30.18 851 25.13 -7.2 19.1 83 -9.6 14.7
22:30 1022 30.18 851 25.13 -7.1 19.3 83 -9.6 14.8
22:35 1022 30.18 851 25.13 -7.1 19.3 83 -9.5 14.9
22:40 1022 30.18 851 25.13 -7.1 19.1 82 -9.8 14.4
22:45 1022 30.18 851 25.13 -7.2 19 81 -9.9 14.2
22:50 1022 30.18 851 25.13 -7.3 18.9 82 -9.9 14.2
22:55 1022 30.18 851 25.13 -7.3 18.8 82 -9.8 14.3
23:00 1022 30.18 851 25.13 -7.4 18.7 82 -10 14.1
23:05 1022 30.18 851 25.13 -7.4 18.6 82 -9.9 14.1
23:10 1022 30.18 851 25.13 -7.4 18.7 82 -9.9 14.1
23:15 1022 30.18 851 25.13 -7.3 18.8 82 -9.9 14.2
23:20 1022 30.18 851 25.13 -7.4 18.7 83 -9.8 14.3
23:25 1022 30.18 851 25.13 -7.5 18.5 83 -9.9 14.2
23:30 1022 30.18 851 25.13 -7.7 18.2 84 -9.9 14.2
23:35 1022 30.18 851 25.13 -7.7 18.2 84 -9.9 14.1
23:40 1022 30.18 851 25.13 -7.8 18.1 84 -10 14
23:45 1022 30.18 851 25.13 -7.8 18 84 -10 13.9
23:50 1022 30.18 852 25.16 -7.7 18.2 83 -10 14
23:55 1022 30.18 852 25.16 -7.5 18.4 83 -10 14
24:00 1022 30.18 852 25.16 -7.5 18.5 83 -9.9 14.1